createdAt,value
2023-05-01T00:03:17.899Z,101285.63
2023-05-01T00:13:21.879Z,101270.91
2023-05-01T00:23:23.443Z,101262.28
2023-05-01T00:33:24.806Z,101253.59
2023-05-01T00:43:26.295Z,101238.00
2023-05-01T00:53:28.598Z,101226.78
2023-05-01T01:03:31.378Z,101226.72
2023-05-01T01:13:42.934Z,101212.81
2023-05-01T01:24:12.830Z,101205.94
2023-05-01T01:34:20.400Z,101199.03
2023-05-01T01:44:33.044Z,101188.63
2023-05-01T01:54:40.740Z,101175.66
2023-05-01T02:04:44.219Z,101165.31
2023-05-01T02:14:48.216Z,101148.06
2023-05-01T02:24:49.815Z,101136.00
2023-05-01T02:34:51.288Z,101123.06
2023-05-01T02:44:59.975Z,101119.59
2023-05-01T02:55:02.506Z,101103.19
2023-05-01T03:05:04.024Z,101091.09
2023-05-01T03:15:05.857Z,101080.75
2023-05-01T03:25:07.598Z,101071.25
2023-05-01T03:35:09.357Z,101054.00
2023-05-01T03:45:11.427Z,101051.38
2023-05-01T03:55:12.786Z,101043.59
2023-05-01T04:05:15.132Z,101037.53
2023-05-01T04:15:16.664Z,101036.66
2023-05-01T04:25:18.313Z,101029.72
2023-05-01T04:35:19.823Z,101027.06
2023-05-01T04:45:21.314Z,101026.22
2023-05-01T04:55:22.898Z,101021.03
2023-05-01T05:05:24.417Z,101018.50
2023-05-01T05:15:25.883Z,101023.69
2023-05-01T05:25:27.290Z,101031.47
2023-05-01T05:35:28.670Z,101029.78
2023-05-01T05:45:33.078Z,101024.66
2023-05-01T05:55:34.548Z,101016.06
2023-05-01T06:05:36.139Z,101026.47
2023-05-01T06:15:38.195Z,101029.88
2023-05-01T06:25:39.917Z,101026.31
2023-05-01T06:35:41.290Z,101021.84
2023-05-01T06:45:42.876Z,101011.25
2023-05-01T06:55:44.199Z,100999.75
2023-05-01T07:05:45.642Z,101004.63
2023-05-01T07:15:46.988Z,101011.31
2023-05-01T07:25:48.500Z,100993.78
2023-05-01T07:35:50.133Z,101000.16
2023-05-01T07:45:57.264Z,100995.63
2023-05-01T07:56:09.341Z,100985.63
2023-05-01T08:06:10.869Z,100986.75
2023-05-01T08:16:12.520Z,100992.28
2023-05-01T08:26:14.125Z,100990.94
2023-05-01T08:36:15.594Z,100980.69
2023-05-01T08:46:26.659Z,100979.84
2023-05-01T08:56:31.165Z,100971.97
2023-05-01T09:06:33.054Z,100974.44
2023-05-01T09:16:34.994Z,100965.75
2023-05-01T09:26:41.868Z,100969.88
2023-05-01T09:36:47.052Z,100967.06
2023-05-01T09:46:49.630Z,100965.00
2023-05-01T09:56:51.033Z,100961.25
2023-05-01T10:06:52.669Z,100959.91
2023-05-01T10:16:54.551Z,100967.69
2023-05-01T10:26:56.410Z,100960.28
2023-05-01T10:37:02.726Z,100952.22
2023-05-01T10:47:27.933Z,100944.47
2023-05-01T10:57:43.973Z,100935.97
2023-05-01T11:07:46.613Z,100920.53
2023-05-01T11:17:49.583Z,100921.03
2023-05-01T11:27:53.414Z,100920.72
2023-05-01T11:37:58.059Z,100916.78
2023-05-01T11:48:02.894Z,100911.09
2023-05-01T11:58:05.494Z,100903.81
2023-05-01T12:08:12.700Z,100899.53
2023-05-01T12:18:15.525Z,100895.09
2023-05-01T12:28:20.253Z,100884.44
2023-05-01T12:38:22.895Z,100892.72
2023-05-01T12:48:25.114Z,100875.81
2023-05-01T12:58:38.765Z,100859.75
2023-05-01T13:08:40.402Z,100860.75
2023-05-01T13:18:48.065Z,100860.56
2023-05-01T13:28:49.854Z,100864.78
2023-05-01T13:38:56.660Z,100865.28
2023-05-01T13:49:03.471Z,100868.47
2023-05-01T13:59:06.327Z,100882.19
2023-05-01T14:09:07.675Z,100863.03
2023-05-01T14:19:09.487Z,100877.59
2023-05-01T14:29:23.309Z,100879.66
2023-05-01T14:39:26.350Z,100877.53
2023-05-01T14:49:27.801Z,100925.69
2023-05-01T14:59:29.286Z,100944.41
2023-05-01T15:09:31.021Z,100960.09
2023-05-01T15:19:32.596Z,100982.69
2023-05-01T15:29:34.832Z,100998.59
2023-05-01T15:39:39.322Z,101001.03
2023-05-01T15:49:41.363Z,101017.97
2023-05-01T15:59:42.853Z,101031.78
2023-05-01T16:09:44.393Z,101023.94
2023-05-01T16:19:46.599Z,101031.31
2023-05-01T16:29:48.029Z,101014.97
2023-05-01T16:39:49.469Z,101029.22
2023-05-01T16:49:52.252Z,101025.63
2023-05-01T16:59:54.112Z,101036.19
2023-05-01T17:09:55.586Z,101036.97
2023-05-01T17:19:57.452Z,101046.53
2023-05-01T17:29:59.351Z,101060.41
2023-05-01T17:40:01.713Z,101067.47
2023-05-01T17:50:07.114Z,101080.53
2023-05-01T18:00:10.094Z,101081.56
2023-05-01T18:10:11.678Z,101090.22
2023-05-01T18:20:13.145Z,101085.41
2023-05-01T18:30:15.129Z,101095.06
2023-05-01T18:40:16.677Z,101103.22
2023-05-01T18:50:21.575Z,101108.63
2023-05-01T19:00:23.056Z,101123.53
2023-05-01T19:10:24.521Z,101139.34
2023-05-01T19:20:26.086Z,101148.97
2023-05-01T19:30:28.154Z,101156.00
2023-05-01T19:40:29.548Z,101164.75
2023-05-01T19:50:32.909Z,101168.31
2023-05-01T20:00:34.970Z,101174.59
2023-05-01T20:10:36.408Z,101186.13
2023-05-01T20:20:37.746Z,101189.66
2023-05-01T20:30:40.988Z,101206.25
2023-05-01T20:40:42.638Z,101226.22
2023-05-01T20:50:45.519Z,101237.63
2023-05-01T21:00:47.220Z,101262.00
2023-05-01T21:10:48.780Z,101258.69
2023-05-01T21:20:50.261Z,101270.88
2023-05-01T21:30:51.680Z,101280.47
2023-05-01T21:40:53.041Z,101280.44
2023-05-01T21:50:54.494Z,101293.47
2023-05-01T22:00:56.004Z,101286.53
2023-05-01T22:10:58.049Z,101302.94
2023-05-01T22:21:01.250Z,101313.25
2023-05-01T22:31:03.264Z,101333.16
2023-05-01T22:41:04.680Z,101332.25
2023-05-01T22:51:06.677Z,101342.63
2023-05-01T23:01:08.347Z,101362.47
2023-05-01T23:11:16.727Z,101368.47
2023-05-01T23:21:19.249Z,101369.22
2023-05-01T23:31:25.313Z,101373.47
2023-05-01T23:41:28.162Z,101383.78
2023-05-01T23:51:31.318Z,101393.91
